createdAt,value
2017-04-19T00:00:53.972Z,938.32
2017-04-19T00:02:06.459Z,938.32
2017-04-19T00:03:19.314Z,938.37
2017-04-19T00:04:32.164Z,938.36
2017-04-19T00:05:44.536Z,938.3
2017-04-19T00:06:57.392Z,938.33
2017-04-19T00:08:10.249Z,938.33
2017-04-19T00:09:23.105Z,938.35
2017-04-19T00:10:35.959Z,938.34
2017-04-19T00:11:48.811Z,938.38
2017-04-19T00:13:01.183Z,938.34
2017-04-19T00:14:14.264Z,938.32
2017-04-19T00:15:27.335Z,938.34
2017-04-19T00:16:40.209Z,938.34
2017-04-19T00:17:52.952Z,938.32
2017-04-19T00:19:05.675Z,938.36
2017-04-19T00:20:18.390Z,938.42
2017-04-19T00:21:31.112Z,938.39
2017-04-19T00:22:43.841Z,938.43
2017-04-19T00:23:56.586Z,938.42
2017-04-19T00:25:09.349Z,938.4
2017-04-19T00:26:22.066Z,938.39
2017-04-19T00:27:34.330Z,938.42
2017-04-19T00:28:46.590Z,938.4
2017-04-19T00:29:59.300Z,938.39
2017-04-19T00:31:11.543Z,938.39
2017-04-19T00:32:24.269Z,938.37
2017-04-19T00:33:37.000Z,938.42
2017-04-19T00:34:49.804Z,938.43
2017-04-19T00:36:02.523Z,938.4
2017-04-19T00:37:15.242Z,938.43
2017-04-19T00:38:27.955Z,938.5
2017-04-19T00:39:40.691Z,938.47
2017-04-19T00:40:54.245Z,938.45
2017-04-19T00:42:06.976Z,938.44
2017-04-19T00:43:19.903Z,938.4
2017-04-19T00:44:32.625Z,938.42
2017-04-19T00:45:45.369Z,938.43
2017-04-19T00:46:58.101Z,938.43
2017-04-19T00:48:11.205Z,938.39
2017-04-19T00:49:23.924Z,938.4
2017-04-19T00:50:36.658Z,938.38
2017-04-19T00:51:49.408Z,938.4
2017-04-19T00:53:02.348Z,938.37
2017-04-19T00:54:15.063Z,938.39
2017-04-19T00:55:27.312Z,938.45
2017-04-19T00:56:40.041Z,938.47
2017-04-19T00:57:52.752Z,938.44
2017-04-19T00:59:05.493Z,938.45
2017-04-19T01:00:17.736Z,938.41
2017-04-19T01:01:30.532Z,938.44
2017-04-19T01:02:43.293Z,938.44
2017-04-19T01:03:56.203Z,938.43
2017-04-19T01:05:08.917Z,938.4
2017-04-19T01:06:21.651Z,938.45
2017-04-19T01:07:34.367Z,938.43
2017-04-19T01:08:47.103Z,938.43
2017-04-19T01:09:59.833Z,938.37
2017-04-19T01:11:12.119Z,938.44
2017-04-19T01:12:24.363Z,938.36
2017-04-19T01:13:36.603Z,938.36
2017-04-19T01:14:49.344Z,938.36
2017-04-19T01:16:02.209Z,938.37
2017-04-19T01:17:14.987Z,938.33
2017-04-19T01:18:27.812Z,938.31
2017-04-19T01:19:40.092Z,938.32
2017-04-19T01:20:53.028Z,938.34
2017-04-19T01:22:05.770Z,938.29
2017-04-19T01:23:18.529Z,938.37
2017-04-19T01:24:30.790Z,938.37
2017-04-19T01:25:44.294Z,938.44
2017-04-19T01:26:57.018Z,938.44
2017-04-19T01:28:09.741Z,938.41
2017-04-19T01:29:22.601Z,938.45
2017-04-19T01:30:35.335Z,938.4
2017-04-19T01:31:48.070Z,938.4
2017-04-19T01:33:00.794Z,938.37
2017-04-19T01:34:13.522Z,938.38
2017-04-19T01:35:26.241Z,938.36
2017-04-19T01:36:38.952Z,938.42
2017-04-19T01:37:51.192Z,938.44
2017-04-19T01:39:03.900Z,938.44
2017-04-19T01:40:16.635Z,938.41
2017-04-19T01:41:28.886Z,938.4
2017-04-19T01:42:41.916Z,938.43
2017-04-19T01:43:54.288Z,938.4
2017-04-19T01:45:06.626Z,938.38
2017-04-19T01:46:18.404Z,938.37
2017-04-19T01:47:31.145Z,938.35
2017-04-19T01:48:44.010Z,938.36
2017-04-19T01:49:56.863Z,938.4
2017-04-19T01:51:08.759Z,938.37
2017-04-19T01:52:21.825Z,938.36
2017-04-19T01:53:34.196Z,938.35
2017-04-19T01:54:47.065Z,938.33
2017-04-19T01:55:59.979Z,938.34
2017-04-19T01:57:12.853Z,938.37
2017-04-19T01:58:25.213Z,938.32
2017-04-19T01:59:38.074Z,938.36
2017-04-19T02:00:51.018Z,938.38
2017-04-19T02:02:03.887Z,938.42
2017-04-19T02:03:16.723Z,938.43
2017-04-19T02:04:29.920Z,938.44
2017-04-19T02:05:42.790Z,938.41
2017-04-19T02:06:55.670Z,938.38
2017-04-19T02:08:08.558Z,938.41
2017-04-19T02:09:21.615Z,938.38
2017-04-19T02:10:34.482Z,938.34
2017-04-19T02:11:46.860Z,938.41
2017-04-19T02:12:59.749Z,938.43
2017-04-19T02:14:12.909Z,938.4
2017-04-19T02:15:27.113Z,938.4
2017-04-19T02:16:39.972Z,938.41
2017-04-19T02:17:52.867Z,938.46
2017-04-19T02:19:05.356Z,938.47
2017-04-19T02:20:18.235Z,938.51
2017-04-19T02:21:31.232Z,938.5
2017-04-19T02:22:44.505Z,938.49
2017-04-19T02:23:57.214Z,938.44
2017-04-19T02:25:10.494Z,938.43
2017-04-19T02:26:22.672Z,938.43
2017-04-19T02:27:35.888Z,938.42
2017-04-19T02:28:49.124Z,938.37
2017-04-19T02:30:02.535Z,938.4
2017-04-19T02:31:15.234Z,938.36
2017-04-19T02:32:28.099Z,938.37
2017-04-19T02:33:40.965Z,938.36
2017-04-19T02:34:53.341Z,938.36
2017-04-19T02:36:05.233Z,938.35
2017-04-19T02:37:18.146Z,938.35
2017-04-19T02:38:30.525Z,938.32
2017-04-19T02:39:42.905Z,938.29
2017-04-19T02:40:55.794Z,938.23
2017-04-19T02:42:08.182Z,938.2
2017-04-19T02:43:21.061Z,938.21
2017-04-19T02:44:34.059Z,938.21
2017-04-19T02:45:46.529Z,938.27
2017-04-19T02:46:59.733Z,938.22
2017-04-19T02:48:12.085Z,938.26
2017-04-19T02:49:24.971Z,938.28
2017-04-19T02:50:37.829Z,938.26
2017-04-19T02:51:50.677Z,938.27
2017-04-19T02:53:03.044Z,938.28
2017-04-19T02:54:15.911Z,938.27
2017-04-19T02:55:28.767Z,938.25
2017-04-19T02:56:41.828Z,938.23
2017-04-19T02:57:54.886Z,938.19
2017-04-19T02:59:08.038Z,938.21
2017-04-19T03:00:20.896Z,938.18
2017-04-19T03:01:33.436Z,938.13
2017-04-19T03:02:46.294Z,938.1
2017-04-19T03:03:59.352Z,938.04
2017-04-19T03:05:12.215Z,938.05
2017-04-19T03:06:25.092Z,938.03
2017-04-19T03:07:37.954Z,938.04
2017-04-19T03:08:50.805Z,938.04
2017-04-19T03:10:03.192Z,938.07
2017-04-19T03:11:15.557Z,938.09
2017-04-19T03:12:28.424Z,938.07
2017-04-19T03:13:41.330Z,938.09
2017-04-19T03:14:53.701Z,938.06
2017-04-19T03:16:06.068Z,938.08
2017-04-19T03:17:18.437Z,938.09
2017-04-19T03:18:31.193Z,938.15
2017-04-19T03:19:43.925Z,938.13
2017-04-19T03:20:56.859Z,938.14
2017-04-19T03:22:09.576Z,938.15
2017-04-19T03:23:22.283Z,938.16
2017-04-19T03:24:35.000Z,938.12
2017-04-19T03:25:47.707Z,938.09
2017-04-19T03:26:59.954Z,938.06
2017-04-19T03:28:12.660Z,938.03
2017-04-19T03:29:25.029Z,938
2017-04-19T03:30:37.267Z,937.95
2017-04-19T03:31:49.531Z,937.96
2017-04-19T03:33:02.239Z,937.95
2017-04-19T03:34:14.944Z,937.92
2017-04-19T03:35:27.177Z,937.92
2017-04-19T03:36:39.885Z,937.93
2017-04-19T03:37:52.597Z,937.97
2017-04-19T03:39:04.831Z,937.95
2017-04-19T03:40:17.058Z,937.94
2017-04-19T03:41:29.802Z,937.96
2017-04-19T03:42:42.711Z,937.92
2017-04-19T03:43:55.410Z,937.93
2017-04-19T03:45:08.126Z,937.92
2017-04-19T03:46:20.923Z,937.91
2017-04-19T03:47:33.618Z,937.88
2017-04-19T03:48:45.853Z,937.88
2017-04-19T03:49:58.075Z,937.87
2017-04-19T03:51:10.786Z,937.85
2017-04-19T03:52:23.496Z,937.84
2017-04-19T03:53:36.199Z,937.87
2017-04-19T03:54:48.896Z,937.83
2017-04-19T03:56:01.133Z,937.85
2017-04-19T03:57:13.349Z,937.86
2017-04-19T03:58:26.241Z,937.89
2017-04-19T03:59:38.933Z,937.84
2017-04-19T04:00:51.818Z,937.85
2017-04-19T04:02:04.511Z,937.79
2017-04-19T04:03:17.200Z,937.79
2017-04-19T04:04:29.881Z,937.76
2017-04-19T04:05:42.104Z,937.75
2017-04-19T04:06:54.359Z,937.75
2017-04-19T04:08:06.096Z,937.69
2017-04-19T04:09:19.084Z,937.67
2017-04-19T04:10:31.771Z,937.71
2017-04-19T04:11:43.978Z,937.69
2017-04-19T04:12:56.670Z,937.67
2017-04-19T04:14:09.358Z,937.66
2017-04-19T04:15:21.771Z,937.6
2017-04-19T04:16:34.455Z,937.63
2017-04-19T04:17:47.247Z,937.6
2017-04-19T04:18:59.940Z,937.6
2017-04-19T04:20:12.729Z,937.59
2017-04-19T04:21:25.414Z,937.6
2017-04-19T04:22:38.102Z,937.62
2017-04-19T04:23:50.794Z,937.64
2017-04-19T04:25:03.481Z,937.62
2017-04-19T04:26:15.514Z,937.63
2017-04-19T04:27:28.205Z,937.6
2017-04-19T04:28:40.895Z,937.57
2017-04-19T04:29:53.587Z,937.58
2017-04-19T04:31:06.273Z,937.59
2017-04-19T04:32:18.960Z,937.58
2017-04-19T04:33:31.649Z,937.55
2017-04-19T04:34:43.892Z,937.58
2017-04-19T04:35:56.309Z,937.58
2017-04-19T04:37:09.294Z,937.54
2017-04-19T04:38:21.981Z,937.52
2017-04-19T04:39:34.190Z,937.5
2017-04-19T04:40:46.408Z,937.52
2017-04-19T04:41:59.098Z,937.5
2017-04-19T04:43:11.782Z,937.47
2017-04-19T04:44:24.464Z,937.5
2017-04-19T04:45:37.147Z,937.46
2017-04-19T04:46:49.832Z,937.49
2017-04-19T04:48:02.939Z,937.51
2017-04-19T04:49:15.751Z,937.44
2017-04-19T04:50:28.436Z,937.43
2017-04-19T04:51:41.118Z,937.42
2017-04-19T04:52:54.105Z,937.44
2017-04-19T04:54:05.861Z,937.39
2017-04-19T04:55:18.076Z,937.41
2017-04-19T04:56:30.757Z,937.4
2017-04-19T04:57:42.966Z,937.38
2017-04-19T04:58:55.651Z,937.34
2017-04-19T05:00:08.338Z,937.38
2017-04-19T05:01:21.020Z,937.4
2017-04-19T05:02:33.713Z,937.38
2017-04-19T05:03:46.703Z,937.38
2017-04-19T05:04:58.472Z,937.34
2017-04-19T05:06:11.159Z,937.36
2017-04-19T05:07:23.371Z,937.32
2017-04-19T05:08:36.053Z,937.3
2017-04-19T05:09:48.735Z,937.29
2017-04-19T05:11:00.946Z,937.25
2017-04-19T05:12:13.632Z,937.21
2017-04-19T05:13:25.845Z,937.19
2017-04-19T05:14:38.528Z,937.22
2017-04-19T05:15:51.208Z,937.23
2017-04-19T05:17:02.940Z,937.2
2017-04-19T05:18:15.623Z,937.18
2017-04-19T05:19:28.304Z,937.16
2017-04-19T05:20:40.990Z,937.17
2017-04-19T05:21:53.198Z,937.15
2017-04-19T05:23:05.418Z,937.17
2017-04-19T05:24:17.623Z,937.17
2017-04-19T05:25:30.310Z,937.19
2017-04-19T05:26:42.522Z,937.22
2017-04-19T05:27:55.207Z,937.18
2017-04-19T05:29:07.889Z,937.17
2017-04-19T05:30:20.571Z,937.15
2017-04-19T05:31:33.471Z,937.13
2017-04-19T05:32:46.168Z,937.14
2017-04-19T05:33:58.849Z,937.16
2017-04-19T05:35:11.057Z,937.15
2017-04-19T05:36:23.743Z,937.19
2017-04-19T05:37:36.427Z,937.21
2017-04-19T05:38:49.120Z,937.21
2017-04-19T05:40:01.372Z,937.23
2017-04-19T05:41:14.056Z,937.2
2017-04-19T05:42:26.745Z,937.23
2017-04-19T05:43:39.430Z,937.25
2017-04-19T05:44:51.174Z,937.26
2017-04-19T05:46:03.379Z,937.28
2017-04-19T05:47:15.590Z,937.28
2017-04-19T05:48:28.311Z,937.27
2017-04-19T05:49:41.000Z,937.28
2017-04-19T05:50:53.209Z,937.27
2017-04-19T05:52:05.527Z,937.26
2017-04-19T05:53:18.508Z,937.28
2017-04-19T05:54:31.221Z,937.3
2017-04-19T05:55:43.905Z,937.33
2017-04-19T05:56:56.112Z,937.35
2017-04-19T05:58:08.794Z,937.3
2017-04-19T05:59:21.014Z,937.31
2017-04-19T06:00:33.713Z,937.28
2017-04-19T06:01:45.919Z,937.29
2017-04-19T06:02:58.600Z,937.25
2017-04-19T06:04:11.019Z,937.28
2017-04-19T06:05:23.229Z,937.27
2017-04-19T06:06:35.436Z,937.32
2017-04-19T06:07:48.120Z,937.3
2017-04-19T06:09:01.101Z,937.32
2017-04-19T06:10:13.783Z,937.32
2017-04-19T06:11:26.467Z,937.29
2017-04-19T06:12:38.678Z,937.3
2017-04-19T06:13:51.360Z,937.26
2017-04-19T06:15:04.246Z,937.26
2017-04-19T06:16:16.938Z,937.25
2017-04-19T06:17:29.643Z,937.26
2017-04-19T06:18:42.504Z,937.24
2017-04-19T06:19:55.622Z,937.2
2017-04-19T06:21:08.455Z,937.19
2017-04-19T06:22:20.794Z,937.14
2017-04-19T06:23:33.619Z,937.12
2017-04-19T06:24:46.442Z,937.06
2017-04-19T06:25:58.780Z,937.05
2017-04-19T06:27:11.118Z,937.08
2017-04-19T06:28:23.933Z,937.08
2017-04-19T06:29:36.752Z,937.11
2017-04-19T06:30:48.123Z,937.11
2017-04-19T06:32:00.941Z,937.13
2017-04-19T06:33:13.760Z,937.14
2017-04-19T06:34:26.583Z,937.13
2017-04-19T06:35:39.403Z,937.13
2017-04-19T06:36:52.520Z,937.06
2017-04-19T06:38:05.342Z,937.05
2017-04-19T06:39:18.208Z,937.06
2017-04-19T06:40:31.029Z,937.05
2017-04-19T06:41:43.852Z,937.06
2017-04-19T06:42:56.681Z,937.09
2017-04-19T06:44:09.501Z,937.11
2017-04-19T06:45:22.321Z,937.13
2017-04-19T06:46:35.142Z,937.15
2017-04-19T06:47:48.258Z,937.16
2017-04-19T06:49:01.084Z,937.15
2017-04-19T06:50:13.422Z,937.18
2017-04-19T06:51:26.244Z,937.17
2017-04-19T06:52:38.580Z,937.16
2017-04-19T06:53:51.403Z,937.17
2017-04-19T06:55:04.229Z,937.2
2017-04-19T06:56:17.485Z,937.23
2017-04-19T06:57:30.308Z,937.22
2017-04-19T06:58:43.136Z,937.22
2017-04-19T06:59:55.956Z,937.18
2017-04-19T07:01:08.775Z,937.25
2017-04-19T07:02:21.095Z,937.23
2017-04-19T07:03:34.076Z,937.24
2017-04-19T07:04:46.763Z,937.24
2017-04-19T07:05:59.446Z,937.2
2017-04-19T07:07:12.129Z,937.2
2017-04-19T07:08:24.817Z,937.2
2017-04-19T07:09:37.499Z,937.24
2017-04-19T07:10:50.320Z,937.22
2017-04-19T07:12:03.006Z,937.21
2017-04-19T07:13:15.212Z,937.25
2017-04-19T07:14:28.195Z,937.23
2017-04-19T07:15:40.880Z,937.27
2017-04-19T07:16:53.563Z,937.26
2017-04-19T07:18:06.243Z,937.24
2017-04-19T07:19:18.927Z,937.27
2017-04-19T07:20:31.437Z,937.25
2017-04-19T07:21:44.121Z,937.22
2017-04-19T07:22:56.333Z,937.23
2017-04-19T07:24:09.019Z,937.21
2017-04-19T07:25:21.899Z,937.19
2017-04-19T07:26:34.653Z,937.2
2017-04-19T07:27:47.162Z,937.2
2017-04-19T07:28:59.847Z,937.18
2017-04-19T07:30:12.531Z,937.22
2017-04-19T07:31:24.941Z,937.2
2017-04-19T07:32:37.621Z,937.21
2017-04-19T07:33:49.835Z,937.21
2017-04-19T07:35:02.518Z,937.22
2017-04-19T07:36:15.235Z,937.2
2017-04-19T07:37:27.918Z,937.21
2017-04-19T07:38:40.129Z,937.2
2017-04-19T07:39:52.811Z,937.24
2017-04-19T07:41:05.174Z,937.22
2017-04-19T07:42:18.249Z,937.2
2017-04-19T07:43:30.929Z,937.26
2017-04-19T07:44:43.137Z,937.25
2017-04-19T07:45:55.822Z,937.26
2017-04-19T07:47:08.528Z,937.24
2017-04-19T07:48:21.348Z,937.26
2017-04-19T07:49:33.694Z,937.27
2017-04-19T07:50:46.522Z,937.25
2017-04-19T07:51:59.342Z,937.23
2017-04-19T07:53:12.371Z,937.21
2017-04-19T07:54:25.192Z,937.26
2017-04-19T07:55:38.092Z,937.25
2017-04-19T07:56:50.937Z,937.25
2017-04-19T07:58:04.055Z,937.26
2017-04-19T07:59:16.390Z,937.25
2017-04-19T08:00:29.211Z,937.24
2017-04-19T08:01:41.551Z,937.28
2017-04-19T08:02:53.401Z,937.29
2017-04-19T08:04:06.039Z,937.31
2017-04-19T08:05:17.896Z,937.32
2017-04-19T08:06:30.237Z,937.31
2017-04-19T08:07:42.582Z,937.32
2017-04-19T08:08:54.916Z,937.35
2017-04-19T08:10:06.770Z,937.35
2017-04-19T08:11:19.607Z,937.33
2017-04-19T08:12:32.428Z,937.36
2017-04-19T08:13:44.765Z,937.37
2017-04-19T08:14:57.786Z,937.38
2017-04-19T08:16:10.121Z,937.41
2017-04-19T08:17:21.488Z,937.4
2017-04-19T08:18:33.828Z,937.42
2017-04-19T08:19:46.850Z,937.43
2017-04-19T08:20:59.183Z,937.4
2017-04-19T08:22:12.004Z,937.44
2017-04-19T08:23:23.857Z,937.42
2017-04-19T08:24:36.676Z,937.47
2017-04-19T08:25:49.009Z,937.48
2017-04-19T08:27:02.017Z,937.46
2017-04-19T08:28:14.841Z,937.48
2017-04-19T08:29:26.695Z,937.51
2017-04-19T08:30:39.232Z,937.47
2017-04-19T08:31:51.558Z,937.48
2017-04-19T08:33:02.814Z,937.4
2017-04-19T08:34:15.503Z,937.48
2017-04-19T08:35:27.708Z,937.46
2017-04-19T08:36:39.441Z,937.48
2017-04-19T08:37:51.647Z,937.57
2017-04-19T08:39:03.855Z,937.55
2017-04-19T08:40:16.546Z,937.58
2017-04-19T08:41:28.605Z,937.59
2017-04-19T08:42:40.952Z,937.6
2017-04-19T08:43:53.160Z,937.63
2017-04-19T08:45:04.889Z,937.65
2017-04-19T08:46:17.577Z,937.67
2017-04-19T08:47:30.264Z,937.69
2017-04-19T08:48:42.947Z,937.67
2017-04-19T08:49:55.629Z,937.67
2017-04-19T08:51:07.835Z,937.68
2017-04-19T08:52:20.517Z,937.69
2017-04-19T08:53:32.924Z,937.71
2017-04-19T08:54:45.607Z,937.73
2017-04-19T08:55:57.813Z,937.72
2017-04-19T08:57:10.588Z,937.76
2017-04-19T08:58:23.276Z,937.74
2017-04-19T08:59:35.494Z,937.76
2017-04-19T09:00:48.178Z,937.77
2017-04-19T09:02:00.863Z,937.8
2017-04-19T09:03:13.072Z,937.82
2017-04-19T09:04:26.055Z,937.83
2017-04-19T09:05:38.733Z,937.79
2017-04-19T09:06:50.943Z,937.8
2017-04-19T09:08:03.635Z,937.77
2017-04-19T09:09:15.842Z,937.77
2017-04-19T09:10:28.826Z,937.82
2017-04-19T09:11:40.731Z,937.76
2017-04-19T09:12:52.463Z,937.8
2017-04-19T09:14:04.671Z,937.78
2017-04-19T09:15:16.400Z,937.81
2017-04-19T09:16:29.087Z,937.76
2017-04-19T09:17:41.869Z,937.77
2017-04-19T09:18:54.196Z,937.74
2017-04-19T09:20:06.530Z,937.74
2017-04-19T09:21:32.939Z,937.74
2017-04-19T09:22:45.767Z,937.77
2017-04-19T09:23:58.720Z,937.82
2017-04-19T09:25:11.140Z,937.81
2017-04-19T09:26:23.483Z,937.83
2017-04-19T09:27:36.312Z,937.85
2017-04-19T09:28:48.645Z,937.86
2017-04-19T09:30:00.980Z,937.86
2017-04-19T09:31:13.616Z,937.87
2017-04-19T09:32:26.433Z,937.87
2017-04-19T09:33:38.766Z,937.87
2017-04-19T09:34:51.109Z,937.91
2017-04-19T09:36:03.930Z,937.93
2017-04-19T09:37:16.265Z,937.93
2017-04-19T09:38:28.599Z,937.95
2017-04-19T09:39:41.462Z,937.95
2017-04-19T09:40:53.803Z,937.95
2017-04-19T09:42:06.825Z,937.95
2017-04-19T09:43:19.689Z,937.96
2017-04-19T09:44:32.529Z,937.99
2017-04-19T09:45:45.347Z,938.05
2017-04-19T09:46:57.198Z,938.04
2017-04-19T09:48:10.020Z,938.05
2017-04-19T09:49:22.842Z,938.05
2017-04-19T09:50:35.180Z,938.02
2017-04-19T09:51:48.003Z,938.02
2017-04-19T09:54:27.748Z,938.04
2017-04-19T09:55:39.599Z,938.05
2017-04-19T09:56:52.417Z,938.08
2017-04-19T09:58:05.238Z,938.11
2017-04-19T09:59:17.584Z,938.15
2017-04-19T10:00:29.920Z,938.15
2017-04-19T10:01:42.253Z,938.21
2017-04-19T10:02:55.074Z,938.22
2017-04-19T10:04:07.894Z,938.25
2017-04-19T10:05:19.743Z,938.26
2017-04-19T10:06:32.648Z,938.29
2017-04-19T10:07:45.033Z,938.31
2017-04-19T10:08:58.082Z,938.34
2017-04-19T10:10:09.928Z,938.31
2017-04-19T10:11:22.752Z,938.34
2017-04-19T10:12:35.087Z,938.32
2017-04-19T10:13:47.908Z,938.32
2017-04-19T10:15:00.932Z,938.3
2017-04-19T10:16:13.272Z,938.31
2017-04-19T10:17:26.085Z,938.33
2017-04-19T10:18:38.425Z,938.36
2017-04-19T10:19:50.769Z,938.36
2017-04-19T10:21:03.811Z,938.39
2017-04-19T10:22:16.628Z,938.43
2017-04-19T10:23:29.456Z,938.4
2017-04-19T10:24:41.791Z,938.41
2017-04-19T10:25:54.126Z,938.44
2017-04-19T10:27:06.464Z,938.46
2017-04-19T10:28:19.289Z,938.4
2017-04-19T10:29:31.631Z,938.4
2017-04-19T10:30:43.483Z,938.38
2017-04-19T10:31:56.302Z,938.39
2017-04-19T10:33:09.125Z,938.39
2017-04-19T10:34:20.499Z,938.41
2017-04-19T10:35:33.405Z,938.42
2017-04-19T10:36:46.424Z,938.45
2017-04-19T10:37:59.267Z,938.47
2017-04-19T10:39:11.604Z,938.47
2017-04-19T10:40:23.941Z,938.52
2017-04-19T10:41:37.066Z,938.53
2017-04-19T10:42:49.409Z,938.53
2017-04-19T10:44:02.225Z,938.52
2017-04-19T10:45:14.562Z,938.5
2017-04-19T10:46:27.383Z,938.53
2017-04-19T10:47:40.418Z,938.56
2017-04-19T10:48:53.110Z,938.58
2017-04-19T10:50:04.866Z,938.53
2017-04-19T10:51:17.105Z,938.53
2017-04-19T10:52:29.995Z,938.56
2017-04-19T10:53:42.716Z,938.56
2017-04-19T10:54:54.922Z,938.6
2017-04-19T10:56:07.605Z,938.64
2017-04-19T10:57:19.339Z,938.57
2017-04-19T10:58:31.848Z,938.59
2017-04-19T10:59:44.056Z,938.58
2017-04-19T11:00:56.287Z,938.55
2017-04-19T11:02:08.969Z,938.52
2017-04-19T11:03:19.957Z,938.54
2017-04-19T11:04:32.655Z,938.58
2017-04-19T11:05:44.870Z,938.55
2017-04-19T11:06:57.614Z,938.65
2017-04-19T11:08:09.916Z,938.65
2017-04-19T11:09:21.961Z,938.68
2017-04-19T11:10:34.183Z,938.66
2017-04-19T11:11:46.416Z,938.6
2017-04-19T11:12:58.620Z,938.65
2017-04-19T11:14:11.301Z,938.61
2017-04-19T11:15:23.983Z,938.65
2017-04-19T11:16:36.665Z,938.62
2017-04-19T11:17:48.400Z,938.63
2017-04-19T11:19:00.605Z,938.64
2017-04-19T11:20:13.281Z,938.59
2017-04-19T11:21:25.965Z,938.59
2017-04-19T11:22:38.181Z,938.53
2017-04-19T11:23:51.049Z,938.54
2017-04-19T11:25:03.256Z,938.53
2017-04-19T11:26:15.951Z,938.52
2017-04-19T11:27:28.174Z,938.55
2017-04-19T11:28:40.867Z,938.54
2017-04-19T11:29:53.087Z,938.52
2017-04-19T11:31:05.299Z,938.53
2017-04-19T11:32:17.996Z,938.52
2017-04-19T11:33:30.830Z,938.52
2017-04-19T11:34:43.183Z,938.52
2017-04-19T11:35:56.048Z,938.52
2017-04-19T11:37:08.554Z,938.52
2017-04-19T11:38:21.116Z,938.52
2017-04-19T11:39:33.509Z,938.51
2017-04-19T11:40:45.442Z,938.51
2017-04-19T11:43:24.330Z,938.62
2017-04-19T11:44:37.387Z,938.55
2017-04-19T11:45:49.940Z,938.61
2017-04-19T11:47:02.743Z,938.59
2017-04-19T11:48:14.780Z,938.62
2017-04-19T11:49:27.389Z,938.62
2017-04-19T11:50:39.670Z,938.66
2017-04-19T11:51:53.095Z,938.66
2017-04-19T11:53:05.744Z,938.66
2017-04-19T11:54:18.879Z,938.7
2017-04-19T11:55:32.003Z,938.72
2017-04-19T11:56:44.337Z,938.76
2017-04-19T11:57:57.356Z,938.69
2017-04-19T11:59:08.729Z,938.76
2017-04-19T12:00:21.567Z,938.76
2017-04-19T12:01:33.421Z,938.74
2017-04-19T12:02:45.962Z,938.78
2017-04-19T12:03:58.779Z,938.8
2017-04-19T12:05:11.192Z,938.77
2017-04-19T12:06:23.638Z,938.83
2017-04-19T12:07:36.461Z,938.84
2017-04-19T12:08:48.799Z,938.87
2017-04-19T12:10:01.146Z,938.87
2017-04-19T12:11:13.975Z,938.87
2017-04-19T12:12:26.327Z,938.88
2017-04-19T12:13:38.664Z,938.86
2017-04-19T12:14:51.002Z,938.86
2017-04-19T12:16:03.829Z,938.86
2017-04-19T12:17:15.667Z,938.84
2017-04-19T12:18:27.882Z,938.83
2017-04-19T12:19:40.465Z,938.79
2017-04-19T12:20:52.879Z,938.82
2017-04-19T12:22:05.638Z,938.77
2017-04-19T12:23:17.879Z,938.71
2017-04-19T12:24:30.670Z,938.76
2017-04-19T12:25:43.004Z,938.73
2017-04-19T12:26:55.814Z,938.74
2017-04-19T12:28:08.538Z,938.71
2017-04-19T12:29:20.770Z,938.71
2017-04-19T12:30:33.499Z,938.76
2017-04-19T12:31:45.274Z,938.76
2017-04-19T12:32:58.034Z,938.71
2017-04-19T12:34:10.844Z,938.74
2017-04-19T12:35:22.894Z,938.73
2017-04-19T12:36:34.743Z,938.69
2017-04-19T12:37:46.681Z,938.67
2017-04-19T12:38:59.087Z,938.67
2017-04-19T12:40:10.831Z,938.63
2017-04-19T12:41:23.513Z,938.68
2017-04-19T12:42:35.719Z,938.65
2017-04-19T12:43:48.404Z,938.7
2017-04-19T12:45:00.609Z,938.67
2017-04-19T12:46:12.350Z,938.62
2017-04-19T12:47:25.035Z,938.63
2017-04-19T12:48:37.720Z,938.64
2017-04-19T12:49:49.925Z,938.61
2017-04-19T12:51:02.634Z,938.66
2017-04-19T12:52:14.842Z,938.67
2017-04-19T12:53:27.868Z,938.72
2017-04-19T12:54:40.551Z,938.73
2017-04-19T12:55:51.330Z,938.72
2017-04-19T12:57:03.063Z,938.68
2017-04-19T12:58:15.753Z,938.68
2017-04-19T12:59:28.437Z,938.62
2017-04-19T13:00:41.121Z,938.68
2017-04-19T13:01:53.332Z,938.64
2017-04-19T13:03:05.068Z,938.63
2017-04-19T13:04:17.748Z,938.65
2017-04-19T13:05:29.957Z,938.64
2017-04-19T13:06:42.182Z,938.63
2017-04-19T13:07:55.000Z,938.6
2017-04-19T13:09:07.959Z,938.67
2017-04-19T13:10:20.170Z,938.63
2017-04-19T13:11:32.412Z,938.64
2017-04-19T13:12:44.026Z,938.65
2017-04-19T13:13:55.764Z,938.63
2017-04-19T13:15:07.497Z,938.6
2017-04-19T13:16:19.713Z,938.61
2017-04-19T13:17:32.403Z,938.55
2017-04-19T13:18:44.614Z,938.61
2017-04-19T13:19:56.845Z,938.65
2017-04-19T13:21:08.305Z,938.61
2017-04-19T13:22:20.990Z,938.62
2017-04-19T13:23:32.734Z,938.54
2017-04-19T13:24:44.162Z,938.56
2017-04-19T13:25:56.378Z,938.52
2017-04-19T13:27:08.587Z,938.52
2017-04-19T13:28:20.797Z,938.51
2017-04-19T13:29:33.485Z,938.43
2017-04-19T13:30:44.743Z,938.46
2017-04-19T13:31:56.956Z,938.4
2017-04-19T13:33:09.643Z,938.43
2017-04-19T13:34:22.329Z,938.37
2017-04-19T13:35:34.538Z,938.34
2017-04-19T13:36:46.745Z,938.32
2017-04-19T13:37:58.954Z,938.27
2017-04-19T13:39:11.170Z,938.28
2017-04-19T13:40:23.390Z,938.29
2017-04-19T13:41:34.853Z,938.29
2017-04-19T13:42:47.542Z,938.3
2017-04-19T13:44:00.232Z,938.23
2017-04-19T13:45:26.267Z,938.25
2017-04-19T13:46:38.008Z,938.23
2017-04-19T13:47:50.702Z,938.21
2017-04-19T13:49:03.390Z,938.25
2017-04-19T13:50:15.608Z,938.23
2017-04-19T13:51:27.849Z,938.22
2017-04-19T13:52:40.561Z,938.14
2017-04-19T13:53:53.273Z,938.17
2017-04-19T13:55:05.976Z,938.17
2017-04-19T13:56:19.070Z,938.16
2017-04-19T13:57:31.757Z,938.12
2017-04-19T13:58:44.447Z,938.12
2017-04-19T13:59:56.657Z,938.14
2017-04-19T14:01:08.870Z,938.04
2017-04-19T14:02:21.382Z,938.06
2017-04-19T14:03:34.083Z,938.08
2017-04-19T14:04:46.301Z,938.05
2017-04-19T14:05:58.992Z,938.04
2017-04-19T14:07:11.713Z,938.05
2017-04-19T14:08:24.588Z,938.01
2017-04-19T14:09:37.284Z,938.04
2017-04-19T14:10:49.527Z,938.01
2017-04-19T14:12:02.227Z,938.01
2017-04-19T14:13:14.914Z,938.05
2017-04-19T14:14:27.605Z,938.08
2017-04-19T14:15:40.295Z,938.05
2017-04-19T14:16:52.517Z,938.03
2017-04-19T14:18:04.732Z,937.98
2017-04-19T14:19:17.415Z,937.98
2017-04-19T14:20:29.636Z,937.93
2017-04-19T14:21:42.322Z,937.88
2017-04-19T14:22:55.010Z,937.87
2017-04-19T14:24:07.694Z,937.84
2017-04-19T14:25:19.908Z,937.8
2017-04-19T14:26:32.671Z,937.78
2017-04-19T14:27:44.882Z,937.74
2017-04-19T14:28:57.769Z,937.73
2017-04-19T14:30:10.451Z,937.67
2017-04-19T14:31:22.683Z,937.72
2017-04-19T14:32:35.505Z,937.67
2017-04-19T14:33:47.855Z,937.59
2017-04-19T14:35:00.980Z,937.65
2017-04-19T14:36:13.806Z,937.61
2017-04-19T14:37:26.630Z,937.56
2017-04-19T14:38:38.969Z,937.59
2017-04-19T14:39:51.792Z,937.55
2017-04-19T14:41:04.794Z,937.54
2017-04-19T14:42:17.131Z,937.54
2017-04-19T14:43:29.958Z,937.56
2017-04-19T14:44:42.781Z,937.48
2017-04-19T14:45:55.601Z,937.56
2017-04-19T14:47:08.422Z,937.54
2017-04-19T14:48:22.079Z,937.49
2017-04-19T14:49:34.418Z,937.43
2017-04-19T14:50:47.477Z,937.48
2017-04-19T14:51:59.818Z,937.49
2017-04-19T14:53:12.644Z,937.41
2017-04-19T14:54:25.467Z,937.32
2017-04-19T14:55:36.850Z,937.34
2017-04-19T14:56:49.218Z,937.32
2017-04-19T14:58:02.040Z,937.28
2017-04-19T14:59:14.872Z,937.25
2017-04-19T15:00:27.223Z,937.22
2017-04-19T15:01:40.050Z,937.16
2017-04-19T15:03:06.470Z,937.16
2017-04-19T15:04:18.834Z,937.18
2017-04-19T15:05:31.660Z,937.13
2017-04-19T15:06:44.008Z,937.11
2017-04-19T15:07:56.832Z,937.1
2017-04-19T15:09:09.663Z,937.01
2017-04-19T15:10:22.487Z,936.98
2017-04-19T15:11:34.827Z,936.92